sensor_id;sensor_type;location;lat;lon;timestamp;pressure;altitude;pressure_sealevel;temperature;humidity
26112;BME280;13829;48.990;8.346;2023-01-04T00:00:21;101744.88;;;6.15;100.00
26112;BME280;13829;48.990;8.346;2023-01-04T00:02:48;101738.88;;;6.17;100.00
26112;BME280;13829;48.990;8.346;2023-01-04T00:05:17;101738.41;;;6.26;100.00
26112;BME280;13829;48.990;8.346;2023-01-04T00:07:44;101737.59;;;6.27;100.00
26112;BME280;13829;48.990;8.346;2023-01-04T00:10:10;101736.75;;;6.28;100.00
26112;BME280;13829;48.990;8.346;2023-01-04T00:12:37;101734.97;;;6.27;100.00
26112;BME280;13829;48.990;8.346;2023-01-04T00:15:06;101737.59;;;6.27;100.00
26112;BME280;13829;48.990;8.346;2023-01-04T00:17:33;101738.41;;;6.26;100.00
26112;BME280;13829;48.990;8.346;2023-01-04T00:20:00;101733.13;;;6.25;100.00
26112;BME280;13829;48.990;8.346;2023-01-04T00:22:32;101733.03;;;6.23;100.00
26112;BME280;13829;48.990;8.346;2023-01-04T00:24:59;101734.41;;;6.15;100.00
26112;BME280;13829;48.990;8.346;2023-01-04T00:27:26;101723.81;;;6.12;100.00
26112;BME280;13829;48.990;8.346;2023-01-04T00:29:53;101730.84;;;6.13;100.00
26112;BME280;13829;48.990;8.346;2023-01-04T00:32:20;101727.13;;;6.08;100.00
26112;BME280;13829;48.990;8.346;2023-01-04T00:34:47;101723.56;;;6.06;100.00
26112;BME280;13829;48.990;8.346;2023-01-04T00:37:14;101733.88;;;6.02;100.00
26112;BME280;13829;48.990;8.346;2023-01-04T00:39:42;101722.38;;;5.99;100.00
26112;BME280;13829;48.990;8.346;2023-01-04T00:42:09;101720.50;;;5.96;100.00
26112;BME280;13829;48.990;8.346;2023-01-04T00:44:36;101728.19;;;5.93;100.00
26112;BME280;13829;48.990;8.346;2023-01-04T00:47:03;101715.00;;;5.90;100.00
26112;BME280;13829;48.990;8.346;2023-01-04T00:49:31;101719.31;;;5.90;100.00
26112;BME280;13829;48.990;8.346;2023-01-04T00:51:59;101719.28;;;5.88;100.00
26112;BME280;13829;48.990;8.346;2023-01-04T00:54:26;101719.28;;;5.88;100.00
26112;BME280;13829;48.990;8.346;2023-01-04T00:56:54;101721.31;;;5.76;100.00
26112;BME280;13829;48.990;8.346;2023-01-04T00:59:22;101722.94;;;5.74;100.00
26112;BME280;13829;48.990;8.346;2023-01-04T01:01:49;101713.88;;;5.65;100.00
26112;BME280;13829;48.990;8.346;2023-01-04T01:04:19;101709.59;;;5.67;100.00
26112;BME280;13829;48.990;8.346;2023-01-04T01:06:48;101713.06;;;5.66;100.00
26112;BME280;13829;48.990;8.346;2023-01-04T01:09:16;101706.59;;;5.58;100.00
26112;BME280;13829;48.990;8.346;2023-01-04T01:11:43;101711.91;;;5.42;100.00
26112;BME280;13829;48.990;8.346;2023-01-04T01:14:18;101710.94;;;5.39;100.00
26112;BME280;13829;48.990;8.346;2023-01-04T01:16:45;101704.16;;;5.43;100.00
26112;BME280;13829;48.990;8.346;2023-01-04T01:19:12;101705.34;;;5.50;100.00
26112;BME280;13829;48.990;8.346;2023-01-04T01:21:40;101716.66;;;5.50;100.00
26112;BME280;13829;48.990;8.346;2023-01-04T01:24:13;101714.22;;;5.35;100.00
26112;BME280;13829;48.990;8.346;2023-01-04T01:26:41;101717.75;;;5.36;100.00
26112;BME280;13829;48.990;8.346;2023-01-04T01:29:08;101720.13;;;5.31;100.00
26112;BME280;13829;48.990;8.346;2023-01-04T01:31:36;101722.50;;;5.27;100.00
26112;BME280;13829;48.990;8.346;2023-01-04T01:34:03;101710.47;;;5.11;100.00
26112;BME280;13829;48.990;8.346;2023-01-04T01:36:30;101719.59;;;5.02;100.00
26112;BME280;13829;48.990;8.346;2023-01-04T01:38:57;101719.97;;;4.92;100.00
26112;BME280;13829;48.990;8.346;2023-01-04T01:41:27;101721.09;;;4.97;100.00
26112;BME280;13829;48.990;8.346;2023-01-04T01:43:57;101720.59;;;4.86;100.00
26112;BME280;13829;48.990;8.346;2023-01-04T01:46:29;101721.44;;;4.69;100.00
26112;BME280;13829;48.990;8.346;2023-01-04T01:49:04;101718.09;;;4.71;100.00
26112;BME280;13829;48.990;8.346;2023-01-04T01:51:33;101711.34;;;4.75;100.00
26112;BME280;13829;48.990;8.346;2023-01-04T01:54:03;101707.00;;;4.76;100.00
26112;BME280;13829;48.990;8.346;2023-01-04T01:56:37;101710.59;;;4.78;100.00
26112;BME280;13829;48.990;8.346;2023-01-04T01:59:08;101706.44;;;4.99;100.00
26112;BME280;13829;48.990;8.346;2023-01-04T02:01:36;101704.94;;;5.04;100.00
26112;BME280;13829;48.990;8.346;2023-01-04T02:04:05;101707.56;;;5.04;100.00
26112;BME280;13829;48.990;8.346;2023-01-04T02:06:37;101701.66;;;5.09;100.00
26112;BME280;13829;48.990;8.346;2023-01-04T02:09:05;101701.22;;;5.17;100.00
26112;BME280;13829;48.990;8.346;2023-01-04T02:11:32;101701.13;;;5.53;100.00
26112;BME280;13829;48.990;8.346;2023-01-04T02:14:01;101703.97;;;5.58;100.00
26112;BME280;13829;48.990;8.346;2023-01-04T02:17:03;101705.25;;;5.66;100.00
26112;BME280;13829;48.990;8.346;2023-01-04T02:19:59;101697.28;;;5.83;100.00
26112;BME280;13829;48.990;8.346;2023-01-04T02:23:07;101692.88;;;5.82;100.00
26112;BME280;13829;48.990;8.346;2023-01-04T02:29:23;101679.28;;;5.89;100.00
26112;BME280;13829;48.990;8.346;2023-01-04T02:32:02;101670.84;;;6.14;100.00
26112;BME280;13829;48.990;8.346;2023-01-04T02:34:40;101661.06;;;6.30;100.00
26112;BME280;13829;48.990;8.346;2023-01-04T02:37:18;101662.47;;;6.43;100.00
26112;BME280;13829;48.990;8.346;2023-01-04T02:40:03;101649.19;;;6.38;100.00
26112;BME280;13829;48.990;8.346;2023-01-04T02:42:41;101662.47;;;6.23;100.00
26112;BME280;13829;48.990;8.346;2023-01-04T02:45:37;101662.50;;;6.44;100.00
26112;BME280;13829;48.990;8.346;2023-01-04T02:48:08;101667.94;;;6.49;100.00
26112;BME280;13829;48.990;8.346;2023-01-04T02:50:55;101655.88;;;6.31;100.00
26112;BME280;13829;48.990;8.346;2023-01-04T02:53:26;101658.19;;;6.45;100.00
26112;BME280;13829;48.990;8.346;2023-01-04T02:56:07;101657.50;;;6.49;100.00
26112;BME280;13829;48.990;8.346;2023-01-04T02:59:04;101670.38;;;6.65;100.00
26112;BME280;13829;48.990;8.346;2023-01-04T03:01:43;101664.38;;;6.47;100.00
26112;BME280;13829;48.990;8.346;2023-01-04T03:04:51;101672.97;;;6.65;100.00
26112;BME280;13829;48.990;8.346;2023-01-04T03:07:45;101666.06;;;6.67;100.00
26112;BME280;13829;48.990;8.346;2023-01-04T03:10:22;101669.47;;;6.65;100.00
26112;BME280;13829;48.990;8.346;2023-01-04T03:13:10;101655.19;;;6.78;100.00
26112;BME280;13829;48.990;8.346;2023-01-04T03:15:45;101656.28;;;6.83;100.00
26112;BME280;13829;48.990;8.346;2023-01-04T03:18:18;101645.34;;;6.93;100.00
26112;BME280;13829;48.990;8.346;2023-01-04T03:20:49;101642.34;;;6.84;100.00
26112;BME280;13829;48.990;8.346;2023-01-04T03:23:23;101640.75;;;6.88;100.00
26112;BME280;13829;48.990;8.346;2023-01-04T03:26:13;101630.78;;;7.00;100.00
26112;BME280;13829;48.990;8.346;2023-01-04T03:29:08;101630.00;;;7.02;100.00
26112;BME280;13829;48.990;8.346;2023-01-04T03:32:02;101626.44;;;7.00;100.00
26112;BME280;13829;48.990;8.346;2023-01-04T03:34:49;101627.53;;;7.06;100.00
26112;BME280;13829;48.990;8.346;2023-01-04T03:37:43;101628.16;;;7.00;100.00
26112;BME280;13829;48.990;8.346;2023-01-04T03:40:22;101630.00;;;7.02;100.00
26112;BME280;13829;48.990;8.346;2023-01-04T03:43:15;101623.47;;;7.14;100.00
26112;BME280;13829;48.990;8.346;2023-01-04T03:46:06;101622.88;;;7.21;100.00
26112;BME280;13829;48.990;8.346;2023-01-04T03:48:59;101621.34;;;7.04;100.00
26112;BME280;13829;48.990;8.346;2023-01-04T03:51:34;101605.34;;;6.96;100.00
26112;BME280;13829;48.990;8.346;2023-01-04T03:54:08;101598.66;;;7.04;100.00
26112;BME280;13829;48.990;8.346;2023-01-04T03:56:41;101595.69;;;7.17;100.00
26112;BME280;13829;48.990;8.346;2023-01-04T03:59:11;101595.41;;;7.10;100.00
26112;BME280;13829;48.990;8.346;2023-01-04T04:01:42;101591.97;;;7.11;100.00
26112;BME280;13829;48.990;8.346;2023-01-04T04:04:10;101580.25;;;7.01;100.00
26112;BME280;13829;48.990;8.346;2023-01-04T04:06:54;101574.47;;;7.10;100.00
26112;BME280;13829;48.990;8.346;2023-01-04T04:09:40;101569.97;;;7.06;100.00
26112;BME280;13829;48.990;8.346;2023-01-04T04:12:07;101567.28;;;7.04;100.00
26112;BME280;13829;48.990;8.346;2023-01-04T04:14:34;101563.00;;;7.06;100.00
26112;BME280;13829;48.990;8.346;2023-01-04T04:17:01;101571.69;;;7.05;100.00
26112;BME280;13829;48.990;8.346;2023-01-04T04:19:28;101571.38;;;6.97;100.00
26112;BME280;13829;48.990;8.346;2023-01-04T04:21:55;101562.13;;;7.06;100.00
26112;BME280;13829;48.990;8.346;2023-01-04T04:24:24;101559.31;;;7.01;100.00
26112;BME280;13829;48.990;8.346;2023-01-04T04:26:54;101544.75;;;7.08;100.00
26112;BME280;13829;48.990;8.346;2023-01-04T04:29:21;101544.38;;;7.21;100.00
26112;BME280;13829;48.990;8.346;2023-01-04T04:31:49;101540.31;;;7.29;100.00
26112;BME280;13829;48.990;8.346;2023-01-04T04:34:16;101547.31;;;7.06;100.00
26112;BME280;13829;48.990;8.346;2023-01-04T04:36:43;101539.19;;;6.98;100.00
26112;BME280;13829;48.990;8.346;2023-01-04T04:39:10;101538.69;;;7.09;100.00
26112;BME280;13829;48.990;8.346;2023-01-04T04:41:38;101534.91;;;7.00;100.00
26112;BME280;13829;48.990;8.346;2023-01-04T04:44:06;101539.94;;;6.96;100.00
26112;BME280;13829;48.990;8.346;2023-01-04T04:46:34;101532.69;;;6.89;100.00
26112;BME280;13829;48.990;8.346;2023-01-04T04:49:01;101531.19;;;6.95;100.00
26112;BME280;13829;48.990;8.346;2023-01-04T04:51:28;101512.94;;;7.20;100.00
26112;BME280;13829;48.990;8.346;2023-01-04T04:53:55;101517.03;;;7.13;100.00
26112;BME280;13829;48.990;8.346;2023-01-04T04:56:22;101522.63;;;7.22;100.00
26112;BME280;13829;48.990;8.346;2023-01-04T04:58:49;101513.03;;;6.98;100.00
26112;BME280;13829;48.990;8.346;2023-01-04T05:01:18;101511.38;;;7.00;100.00
26112;BME280;13829;48.990;8.346;2023-01-04T05:03:45;101511.56;;;7.07;100.00
26112;BME280;13829;48.990;8.346;2023-01-04T05:06:12;101510.09;;;7.13;100.00
26112;BME280;13829;48.990;8.346;2023-01-04T05:08:39;101504.97;;;7.16;100.00
26112;BME280;13829;48.990;8.346;2023-01-04T05:11:08;101504.59;;;7.30;100.00
26112;BME280;13829;48.990;8.346;2023-01-04T05:13:35;101500.34;;;7.33;100.00
26112;BME280;13829;48.990;8.346;2023-01-04T05:16:04;101494.44;;;7.39;100.00
26112;BME280;13829;48.990;8.346;2023-01-04T05:18:33;101496.56;;;7.25;100.00
26112;BME280;13829;48.990;8.346;2023-01-04T05:21:00;101501.19;;;7.32;100.00
26112;BME280;13829;48.990;8.346;2023-01-04T05:23:28;101500.53;;;7.40;100.00
26112;BME280;13829;48.990;8.346;2023-01-04T05:25:58;101499.00;;;7.45;100.00
26112;BME280;13829;48.990;8.346;2023-01-04T05:28:25;101499.19;;;7.75;100.00
26112;BME280;13829;48.990;8.346;2023-01-04T05:30:53;101496.63;;;7.77;100.00
26112;BME280;13829;48.990;8.346;2023-01-04T05:33:22;101491.38;;;7.77;100.00
26112;BME280;13829;48.990;8.346;2023-01-04T05:35:53;101494.88;;;7.77;100.00
26112;BME280;13829;48.990;8.346;2023-01-04T05:38:21;101496.81;;;7.83;100.00
26112;BME280;13829;48.990;8.346;2023-01-04T05:40:50;101492.13;;;7.73;100.00
26112;BME280;13829;48.990;8.346;2023-01-04T05:43:19;101493.25;;;7.81;100.00
26112;BME280;13829;48.990;8.346;2023-01-04T05:45:48;101490.94;;;7.90;100.00
26112;BME280;13829;48.990;8.346;2023-01-04T05:48:16;101490.22;;;7.94;100.00
26112;BME280;13829;48.990;8.346;2023-01-04T05:50:43;101484.78;;;7.88;100.00
26112;BME280;13829;48.990;8.346;2023-01-04T05:53:14;101486.59;;;7.91;100.00
26112;BME280;13829;48.990;8.346;2023-01-04T05:55:42;101480.44;;;7.90;100.00
26112;BME280;13829;48.990;8.346;2023-01-04T05:58:09;101484.97;;;7.94;100.00
26112;BME280;13829;48.990;8.346;2023-01-04T06:00:36;101488.94;;;8.09;100.00
26112;BME280;13829;48.990;8.346;2023-01-04T06:03:03;101490.59;;;8.07;100.00
26112;BME280;13829;48.990;8.346;2023-01-04T06:05:30;101480.31;;;8.13;100.00
26112;BME280;13829;48.990;8.346;2023-01-04T06:07:57;101475.00;;;8.10;100.00
26112;BME280;13829;48.990;8.346;2023-01-04T06:10:25;101492.50;;;8.11;100.00
26112;BME280;13829;48.990;8.346;2023-01-04T06:12:52;101484.44;;;8.05;100.00
26112;BME280;13829;48.990;8.346;2023-01-04T06:15:19;101482.84;;;8.10;100.00
26112;BME280;13829;48.990;8.346;2023-01-04T06:17:46;101480.03;;;8.04;100.00
26112;BME280;13829;48.990;8.346;2023-01-04T06:20:12;101482.16;;;8.15;100.00
26112;BME280;13829;48.990;8.346;2023-01-04T06:22:40;101470.88;;;8.18;100.00
26112;BME280;13829;48.990;8.346;2023-01-04T06:25:09;101468.50;;;8.26;100.00
26112;BME280;13829;48.990;8.346;2023-01-04T06:27:37;101467.66;;;8.27;100.00
26112;BME280;13829;48.990;8.346;2023-01-04T06:30:05;101472.56;;;8.16;100.00
26112;BME280;13829;48.990;8.346;2023-01-04T06:32:32;101463.13;;;8.21;100.00
26112;BME280;13829;48.990;8.346;2023-01-04T06:34:59;101466.66;;;8.23;100.00
26112;BME280;13829;48.990;8.346;2023-01-04T06:37:26;101467.66;;;8.27;100.00
26112;BME280;13829;48.990;8.346;2023-01-04T06:39:53;101463.22;;;8.24;100.00
26112;BME280;13829;48.990;8.346;2023-01-04T06:42:20;101468.66;;;8.30;100.00
26112;BME280;13829;48.990;8.346;2023-01-04T06:45:07;101466.13;;;8.33;100.00
26112;BME280;13829;48.990;8.346;2023-01-04T06:47:34;101477.78;;;8.43;99.34
26112;BME280;13829;48.990;8.346;2023-01-04T06:50:01;101478.72;;;8.45;99.42
26112;BME280;13829;48.990;8.346;2023-01-04T06:52:29;101467.09;;;8.37;98.74
26112;BME280;13829;48.990;8.346;2023-01-04T06:54:56;101451.44;;;8.39;99.15
26112;BME280;13829;48.990;8.346;2023-01-04T06:57:23;101445.41;;;8.41;98.22
26112;BME280;13829;48.990;8.346;2023-01-04T06:59:50;101456.13;;;8.47;98.10
26112;BME280;13829;48.990;8.346;2023-01-04T07:02:18;101463.34;;;8.56;97.75
26112;BME280;13829;48.990;8.346;2023-01-04T07:04:45;101451.94;;;8.54;98.29
26112;BME280;13829;48.990;8.346;2023-01-04T07:07:12;101456.41;;;8.58;97.06
26112;BME280;13829;48.990;8.346;2023-01-04T07:09:39;101463.53;;;8.62;97.16
26112;BME280;13829;48.990;8.346;2023-01-04T07:12:06;101455.78;;;8.65;95.98
26112;BME280;13829;48.990;8.346;2023-01-04T07:14:33;101451.19;;;8.58;96.55
26112;BME280;13829;48.990;8.346;2023-01-04T07:16:59;101457.97;;;8.52;96.87
26112;BME280;13829;48.990;8.346;2023-01-04T07:19:28;101450.19;;;8.55;97.30
26112;BME280;13829;48.990;8.346;2023-01-04T07:21:55;101451.94;;;8.54;96.75
26112;BME280;13829;48.990;8.346;2023-01-04T07:24:23;101451.19;;;8.58;97.44
26112;BME280;13829;48.990;8.346;2023-01-04T07:26:50;101451.41;;;8.66;95.66
26112;BME280;13829;48.990;8.346;2023-01-04T07:29:17;101450.53;;;8.65;96.10
26112;BME280;13829;48.990;8.346;2023-01-04T07:31:48;101447.72;;;8.59;95.62
26112;BME280;13829;48.990;8.346;2023-01-04T07:34:18;101445.09;;;8.59;95.39
26112;BME280;13829;48.990;8.346;2023-01-04T07:36:47;101453.03;;;8.62;96.07
26112;BME280;13829;48.990;8.346;2023-01-04T07:39:16;101450.34;;;8.59;97.02
26112;BME280;13829;48.990;8.346;2023-01-04T07:41:44;101441.09;;;8.72;96.48
26112;BME280;13829;48.990;8.346;2023-01-04T07:44:12;101433.25;;;8.74;96.46
26112;BME280;13829;48.990;8.346;2023-01-04T07:46:40;101421.72;;;8.67;96.87
26112;BME280;13829;48.990;8.346;2023-01-04T07:49:10;101431.97;;;8.59;97.50
26112;BME280;13829;48.990;8.346;2023-01-04T07:51:38;101436.44;;;8.62;98.91
26112;BME280;13829;48.990;8.346;2023-01-04T07:54:06;101436.38;;;8.60;97.43
26112;BME280;13829;48.990;8.346;2023-01-04T07:56:34;101433.84;;;8.63;98.62
26112;BME280;13829;48.990;8.346;2023-01-04T07:59:03;101426.69;;;8.58;98.30
26112;BME280;13829;48.990;8.346;2023-01-04T08:01:31;101432.94;;;8.61;98.90
26112;BME280;13829;48.990;8.346;2023-01-04T08:03:59;101424.19;;;8.62;98.17
26112;BME280;13829;48.990;8.346;2023-01-04T08:06:26;101413.53;;;8.56;99.19
26112;BME280;13829;48.990;8.346;2023-01-04T08:08:53;101410.47;;;8.71;98.76
26112;BME280;13829;48.990;8.346;2023-01-04T08:11:22;101405.44;;;8.79;98.96
26112;BME280;13829;48.990;8.346;2023-01-04T08:13:49;101395.91;;;8.82;97.65
26112;BME280;13829;48.990;8.346;2023-01-04T08:16:20;101386.16;;;8.77;96.75
26112;BME280;13829;48.990;8.346;2023-01-04T08:18:52;101384.56;;;8.82;97.20
26112;BME280;13829;48.990;8.346;2023-01-04T08:21:19;101392.00;;;8.67;96.44
26112;BME280;13829;48.990;8.346;2023-01-04T08:23:46;101375.69;;;8.78;96.75
26112;BME280;13829;48.990;8.346;2023-01-04T08:26:14;101372.31;;;8.82;96.54
26112;BME280;13829;48.990;8.346;2023-01-04T08:28:43;101363.00;;;8.94;95.93
26112;BME280;13829;48.990;8.346;2023-01-04T08:31:14;101364.81;;;8.96;95.53
26112;BME280;13829;48.990;8.346;2023-01-04T08:33:42;101366.78;;;9.04;94.85
26112;BME280;13829;48.990;8.346;2023-01-04T08:36:14;101364.22;;;9.07;95.32
26112;BME280;13829;48.990;8.346;2023-01-04T08:38:42;101372.84;;;9.03;93.69
26112;BME280;13829;48.990;8.346;2023-01-04T08:41:09;101375.50;;;9.04;93.33
26112;BME280;13829;48.990;8.346;2023-01-04T08:43:36;101367.72;;;9.06;93.02
26112;BME280;13829;48.990;8.346;2023-01-04T08:46:05;101369.56;;;9.10;92.45
26112;BME280;13829;48.990;8.346;2023-01-04T08:48:34;101359.84;;;9.06;92.39
26112;BME280;13829;48.990;8.346;2023-01-04T08:51:03;101358.16;;;9.09;91.50
26112;BME280;13829;48.990;8.346;2023-01-04T08:53:32;101359.13;;;9.13;92.09
26112;BME280;13829;48.990;8.346;2023-01-04T08:55:59;101362.00;;;9.22;92.68
26112;BME280;13829;48.990;8.346;2023-01-04T08:58:30;101342.63;;;9.17;92.66
26112;BME280;13829;48.990;8.346;2023-01-04T09:00:59;101354.31;;;9.28;90.78
26112;BME280;13829;48.990;8.346;2023-01-04T09:03:29;101353.25;;;9.23;90.66
26112;BME280;13829;48.990;8.346;2023-01-04T09:06:02;101358.75;;;9.31;91.50
26112;BME280;13829;48.990;8.346;2023-01-04T09:08:31;101369.97;;;9.25;90.68
26112;BME280;13829;48.990;8.346;2023-01-04T09:11:02;101361.25;;;9.26;91.07
26112;BME280;13829;48.990;8.346;2023-01-04T09:13:30;101355.22;;;9.30;90.61
26112;BME280;13829;48.990;8.346;2023-01-04T09:16:00;101348.47;;;9.40;90.64
26112;BME280;13829;48.990;8.346;2023-01-04T09:18:29;101333.69;;;9.44;90.16
26112;BME280;13829;48.990;8.346;2023-01-04T09:20:56;101349.25;;;9.36;89.76
26112;BME280;13829;48.990;8.346;2023-01-04T09:23:23;101360.66;;;9.38;90.48
26112;BME280;13829;48.990;8.346;2023-01-04T09:25:50;101359.75;;;9.36;90.86
26112;BME280;13829;48.990;8.346;2023-01-04T09:28:17;101359.84;;;9.41;90.36
26112;BME280;13829;48.990;8.346;2023-01-04T09:30:44;101356.69;;;9.54;90.34
26112;BME280;13829;48.990;8.346;2023-01-04T09:33:11;101355.75;;;9.52;89.28
26112;BME280;13829;48.990;8.346;2023-01-04T09:35:39;101356.69;;;9.54;90.07
26112;BME280;13829;48.990;8.346;2023-01-04T09:38:06;101353.06;;;9.49;89.37
26112;BME280;13829;48.990;8.346;2023-01-04T09:40:57;101346.97;;;9.50;89.99
26112;BME280;13829;48.990;8.346;2023-01-04T09:43:33;101348.09;;;9.61;87.77
26112;BME280;13829;48.990;8.346;2023-01-04T09:46:07;101341.91;;;9.59;87.58
26112;BME280;13829;48.990;8.346;2023-01-04T09:48:39;101339.50;;;9.69;86.07
26112;BME280;13829;48.990;8.346;2023-01-04T09:51:15;101327.16;;;9.65;87.10
26112;BME280;13829;48.990;8.346;2023-01-04T09:53:46;101333.22;;;9.62;86.59
26112;BME280;13829;48.990;8.346;2023-01-04T09:56:23;101325.66;;;9.76;86.17
26112;BME280;13829;48.990;8.346;2023-01-04T09:58:53;101331.81;;;9.76;85.83
26112;BME280;13829;48.990;8.346;2023-01-04T10:01:24;101318.78;;;9.81;84.93
26112;BME280;13829;48.990;8.346;2023-01-04T10:03:59;101324.22;;;9.90;84.56
26112;BME280;13829;48.990;8.346;2023-01-04T10:06:33;101310.38;;;9.98;83.98
26112;BME280;13829;48.990;8.346;2023-01-04T10:09:05;101315.72;;;10.01;84.14
26112;BME280;13829;48.990;8.346;2023-01-04T10:12:00;101301.94;;;10.11;82.67
26112;BME280;13829;48.990;8.346;2023-01-04T10:14:48;101298.50;;;10.15;83.82
26112;BME280;13829;48.990;8.346;2023-01-04T10:17:45;101288.00;;;10.15;83.41
26112;BME280;13829;48.990;8.346;2023-01-04T10:23:33;101301.84;;;10.08;82.16
26112;BME280;13829;48.990;8.346;2023-01-04T10:26:10;101287.59;;;9.98;82.41
26112;BME280;13829;48.990;8.346;2023-01-04T10:29:10;101287.59;;;9.96;82.92
26112;BME280;13829;48.990;8.346;2023-01-04T10:31:55;101301.47;;;9.89;83.20
26112;BME280;13829;48.990;8.346;2023-01-04T10:34:29;101294.56;;;9.94;82.27
26112;BME280;13829;48.990;8.346;2023-01-04T10:37:02;101292.00;;;9.98;83.22
26112;BME280;13829;48.990;8.346;2023-01-04T10:39:33;101286.91;;;10.05;81.75
26112;BME280;13829;48.990;8.346;2023-01-04T10:42:13;101293.91;;;10.05;82.57
26112;BME280;13829;48.990;8.346;2023-01-04T10:44:56;101285.13;;;10.04;83.12
26112;BME280;13829;48.990;8.346;2023-01-04T10:47:34;101273.88;;;10.10;82.59
26112;BME280;13829;48.990;8.346;2023-01-04T10:50:13;101265.03;;;10.08;83.29
26112;BME280;13829;48.990;8.346;2023-01-04T10:52:47;101273.91;;;10.13;82.96
26112;BME280;13829;48.990;8.346;2023-01-04T10:55:25;101278.44;;;10.20;83.29
26112;BME280;13829;48.990;8.346;2023-01-04T10:57:58;101272.22;;;10.15;83.31
26112;BME280;13829;48.990;8.346;2023-01-04T11:00:33;101256.50;;;10.18;82.62
26112;BME280;13829;48.990;8.346;2023-01-04T11:03:11;101266.19;;;10.21;84.10
26112;BME280;13829;48.990;8.346;2023-01-04T11:05:48;101263.59;;;10.22;83.08
26112;BME280;13829;48.990;8.346;2023-01-04T11:08:22;101256.63;;;10.26;82.81
26112;BME280;13829;48.990;8.346;2023-01-04T11:10:56;101267.22;;;10.27;83.29
26112;BME280;13829;48.990;8.346;2023-01-04T11:13:27;101268.75;;;10.16;84.07
26112;BME280;13829;48.990;8.346;2023-01-04T11:15:54;101267.91;;;10.19;84.40
26112;BME280;13829;48.990;8.346;2023-01-04T11:18:21;101269.69;;;10.20;84.49
26112;BME280;13829;48.990;8.346;2023-01-04T11:20:49;101271.41;;;10.19;84.67
26112;BME280;13829;48.990;8.346;2023-01-04T11:23:18;101267.00;;;10.18;85.43
26112;BME280;13829;48.990;8.346;2023-01-04T11:25:51;101265.31;;;10.20;85.00
26112;BME280;13829;48.990;8.346;2023-01-04T11:28:27;101258.19;;;10.15;84.04
26112;BME280;13829;48.990;8.346;2023-01-04T11:31:02;101260.91;;;10.21;84.87
26112;BME280;13829;48.990;8.346;2023-01-04T11:33:51;101251.22;;;10.18;85.03
26112;BME280;13829;48.990;8.346;2023-01-04T11:36:33;101257.59;;;10.29;83.51
26112;BME280;13829;48.990;8.346;2023-01-04T11:39:02;101247.03;;;10.26;84.05
26112;BME280;13829;48.990;8.346;2023-01-04T11:41:29;101249.53;;;10.20;84.29
26112;BME280;13829;48.990;8.346;2023-01-04T11:44:00;101251.38;;;10.26;84.36
26112;BME280;13829;48.990;8.346;2023-01-04T11:46:30;101267.97;;;10.23;84.29
26112;BME280;13829;48.990;8.346;2023-01-04T11:48:57;101263.53;;;10.19;84.18
26112;BME280;13829;48.990;8.346;2023-01-04T11:51:42;101274.03;;;10.19;84.42
26112;BME280;13829;48.990;8.346;2023-01-04T11:54:19;101270.81;;;10.33;83.54
26112;BME280;13829;48.990;8.346;2023-01-04T11:57:00;101259.41;;;10.32;83.93
26112;BME280;13829;48.990;8.346;2023-01-04T11:59:29;101264.72;;;10.34;84.72
26112;BME280;13829;48.990;8.346;2023-01-04T12:02:22;101264.72;;;10.35;85.25
26112;BME280;13829;48.990;8.346;2023-01-04T12:04:51;101266.38;;;10.30;84.71
26112;BME280;13829;48.990;8.346;2023-01-04T12:07:29;101251.34;;;10.23;85.34
26112;BME280;13829;48.990;8.346;2023-01-04T12:09:59;101255.78;;;10.25;86.60
26112;BME280;13829;48.990;8.346;2023-01-04T12:12:30;101244.53;;;10.33;86.64
26112;BME280;13829;48.990;8.346;2023-01-04T12:15:05;101247.03;;;10.26;86.70
26112;BME280;13829;48.990;8.346;2023-01-04T12:17:52;101245.38;;;10.32;86.34
26112;BME280;13829;48.990;8.346;2023-01-04T12:20:26;101237.47;;;10.30;87.01
26112;BME280;13829;48.990;8.346;2023-01-04T12:22:54;101228.94;;;10.42;85.78
26112;BME280;13829;48.990;8.346;2023-01-04T12:25:31;101223.78;;;10.47;85.64
26112;BME280;13829;48.990;8.346;2023-01-04T12:27:58;101229.06;;;10.48;85.94
26112;BME280;13829;48.990;8.346;2023-01-04T12:30:36;101200.94;;;10.44;85.56
26112;BME280;13829;48.990;8.346;2023-01-04T12:33:37;101217.69;;;10.48;85.32
26112;BME280;13829;48.990;8.346;2023-01-04T12:36:06;101201.09;;;10.53;85.56
26112;BME280;13829;48.990;8.346;2023-01-04T12:39:27;101192.44;;;10.59;85.59
26112;BME280;13829;48.990;8.346;2023-01-04T12:42:20;101183.72;;;10.62;85.81
26112;BME280;13829;48.990;8.346;2023-01-04T12:45:15;101185.53;;;10.66;86.33
26112;BME280;13829;48.990;8.346;2023-01-04T12:47:47;101177.66;;;10.66;86.28
26112;BME280;13829;48.990;8.346;2023-01-04T12:51:20;101165.59;;;10.79;86.35
26112;BME280;13829;48.990;8.346;2023-01-04T12:53:54;101182.31;;;10.84;86.43
26112;BME280;13829;48.990;8.346;2023-01-04T12:56:21;101161.25;;;10.82;85.13
26112;BME280;13829;48.990;8.346;2023-01-04T12:59:06;101173.56;;;10.83;84.84
26112;BME280;13829;48.990;8.346;2023-01-04T13:01:35;101171.66;;;10.73;86.24
26112;BME280;13829;48.990;8.346;2023-01-04T13:04:32;101176.84;;;10.70;84.97
26112;BME280;13829;48.990;8.346;2023-01-04T13:07:19;101169.03;;;10.74;86.16
26112;BME280;13829;48.990;8.346;2023-01-04T13:09:53;101179.56;;;10.76;85.51
26112;BME280;13829;48.990;8.346;2023-01-04T13:12:58;101174.31;;;10.76;85.90
26112;BME280;13829;48.990;8.346;2023-01-04T13:15:45;101173.38;;;10.74;85.77
26112;BME280;13829;48.990;8.346;2023-01-04T13:18:33;101166.44;;;10.77;86.57
26112;BME280;13829;48.990;8.346;2023-01-04T13:21:09;101163.81;;;10.77;85.78
26112;BME280;13829;48.990;8.346;2023-01-04T13:23:38;101173.56;;;10.83;87.17
26112;BME280;13829;48.990;8.346;2023-01-04T13:26:37;101160.94;;;10.64;87.37
26112;BME280;13829;48.990;8.346;2023-01-04T13:29:15;101156.66;;;10.70;87.05